Date,TemperatureHighF,TemperatureAvgF,TemperatureLowF,DewpointHighF,DewpointAvgF,DewpointLowF,HumidityHigh,HumidityAvg,HumidityLow,PressureMaxIn,PressureMinIn,WindSpeedMaxMPH,WindSpeedAvgMPH,GustSpeedMaxMPH,PrecipitationSumIn
2013-1-1,15,7,-9,8,0,-10,92,74,56,0.00,40.00,5,-16,9,0.00
2013-1-2,25,18,12,15,12,8,92,78,63,0.00,40.00,6,4,10,0.00
2013-1-3,23,18,9,21,15,6,98,90,82,0.00,40.00,7,6,14,0.00
2013-1-4,32,22,10,18,15,8,94,76,55,0.00,40.00,10,5,17,0.00
2013-1-5,39,24,5,28,20,5,99,86,60,0.00,40.00,11,4,18,0.00
2013-1-6,27,21,12,21,17,9,95,86,68,0.00,40.00,11,5,16,0.00
2013-1-7,38,26,12,28,20,9,91,78,56,0.00,40.00,11,6,27,0.00
2013-1-8,39,32,14,33,27,14,99,84,65,0.00,40.00,12,5,29,0.00
2013-1-9,39,33,23,32,27,21,94,79,54,0.00,40.00,12,8,29,0.00
2013-1-10,37,27,16,34,24,16,99,89,59,0.00,40.00,12,4,16,0.00
2013-1-11,45,38,34,45,38,34,99,99,99,0.00,40.00,11,4,17,0.00
2013-1-12,48,28,15,45,21,8,99,75,66,0.00,40.00,17,10,39,0.00
2013-1-13,15,11,8,8,5,3,80,76,72,0.00,40.00,12,7,20,0.00
2013-1-14,21,12,5,11,6,3,94,80,64,0.00,40.00,11,3,19,0.00
2013-1-15,33,19,2,16,10,1,95,72,46,0.00,40.00,9,4,19,0.00
2013-1-16,34,27,22,32,22,13,96,80,66,0.00,40.00,12,7,19,0.00
2013-1-17,23,17,11,13,6,2,83,64,49,0.00,40.00,11,6,18,0.00
2013-1-18,45,30,10,34,24,7,96,79,57,0.00,40.00,17,6,26,0.00
2013-1-19,47,34,8,35,26,-2,95,75,46,0.00,40.00,29,10,47,0.00
2013-1-20,13,8,3,3,-2,-3,83,67,54,0.00,40.00,20,10,36,0.00
2013-1-21,6,-2,-6,2,-8,-11,89,77,66,0.00,40.00,17,10,27,0.00
2013-1-22,5,-4,-9,-2,-9,-12,87,80,64,0.00,40.00,8,4,15,0.00
2013-1-23,18,10,-2,14,5,-8,91,80,69,0.00,40.00,17,7,28,0.00
2013-1-24,-2,-4,-5,-6,-9,-10,84,80,73,0.00,40.00,7,4,15,0.00
2013-1-30,26,19,13,26,17,7,99,89,75,0.00,40.00,15,11,26,0.00
2013-1-31,9,5,-2,2,-2,-7,81,74,66,0.00,40.00,17,11,26,0.00
2013-2-1,6,-1,-10,1,-8,-14,89,71,52,0.00,40.00,9,4,13,0.00
2013-2-2,17,7,3,5,1,-1,92,78,52,0.00,40.00,7,2,12,0.00
2013-2-3,17,12,6,10,6,5,94,79,62,0.00,40.00,11,-5,17,0.00
2013-2-4,22,14,4,11,5,-1,96,72,44,0.00,40.00,4,2,10,0.00
2013-2-5,28,19,2,26,15,-2,96,86,75,0.00,40.00,12,6,18,0.00
2013-2-6,27,13,-5,25,12,-6,97,92,85,0.00,40.00,10,3,13,0.00
2013-2-7,31,28,26,30,27,25,99,99,96,0.00,40.00,6,3,13,0.00
2013-2-8,30,21,6,23,13,4,92,74,49,0.00,40.00,7,2,12,0.00
2013-2-9,28,18,1,25,17,0,99,93,86,0.00,40.00,9,5,16,0.00
2013-2-10,38,32,27,38,32,25,99,98,92,0.00,40.00,12,7,21,0.00
2013-2-11,36,30,23,35,27,19,99,92,81,0.00,40.00,14,10,28,0.00
2013-2-12,33,26,19,24,20,15,92,77,59,0.00,40.00,12,5,19,0.00
2013-2-13,41,32,21,33,26,20,99,81,57,0.00,40.00,6,3,10,0.00
2013-2-14,34,31,19,34,26,11,99,82,59,0.00,40.00,13,8,24,0.00
2013-2-15,22,15,10,11,5,1,72,65,56,0.00,40.00,12,6,17,0.00
2013-2-16,18,10,-3,6,2,-7,86,68,51,0.00,40.00,7,4,12,0.00
2013-2-17,26,11,-10,19,3,-12,91,73,51,0.00,40.00,11,4,17,0.00
2013-2-18,44,32,20,34,27,19,98,82,63,0.00,40.00,16,7,24,0.00
2013-2-19,20,11,6,19,4,-4,96,75,61,0.00,40.00,19,13,32,0.00
2013-2-20,23,11,2,8,2,-5,81,68,53,0.00,40.00,9,6,15,0.00
2013-2-21,23,14,1,23,11,-1,99,87,74,0.00,40.00,14,6,26,0.00
2013-2-22,32,25,22,27,23,21,99,94,81,0.00,40.00,14,5,26,0.00
2013-2-23,31,26,22,24,22,21,97,86,68,0.00,40.00,8,5,16,0.00
2013-2-24,41,27,14,26,20,14,99,76,47,0.00,40.00,6,2,9,0.00
2013-2-25,40,29,18,27,24,17,97,82,57,0.00,40.00,4,1,6,0.00
2013-2-26,37,30,22,27,25,22,99,83,64,0.00,40.00,14,7,26,0.00
2013-2-27,33,32,29,32,29,25,99,92,80,0.00,40.00,10,7,18,0.00
2013-2-28,32,30,25,30,25,16,96,82,65,0.00,40.00,9,6,16,0.00
2013-3-1,29,24,20,19,16,10,89,70,56,0.00,40.00,9,4,15,0.00
2013-3-2,29,19,10,12,7,4,85,62,38,0.00,40.00,8,3,14,0.00
2013-3-3,32,17,0,12,5,-1,95,64,30,0.00,40.00,5,1,8,0.00
2013-3-4,30,22,13,24,15,6,88,75,63,0.00,40.00,11,7,19,0.00
2013-3-5,27,26,23,27,25,23,99,97,88,0.00,40.00,9,6,18,0.00
2013-3-6,30,26,15,24,20,12,95,82,62,0.00,40.00,11,6,17,0.00
2013-3-7,37,21,2,19,13,1,97,74,46,0.00,40.00,6,2,9,0.00
2013-3-8,42,28,11,27,21,10,99,79,54,0.00,40.00,8,4,17,0.00
2013-3-9,38,35,31,38,34,27,99,93,85,0.00,40.00,10,6,17,0.00
2013-3-10,37,36,33,37,35,32,99,99,99,0.00,40.00,7,3,15,0.00
2013-3-11,33,30,27,32,29,26,99,97,92,0.00,40.00,10,6,20,0.00
2013-3-12,29,26,21,26,21,15,97,82,65,0.00,40.00,14,7,21,0.00
2013-3-13,31,23,16,19,12,8,92,65,40,0.00,40.00,10,7,17,0.00
2013-3-14,39,26,14,29,22,11,96,84,65,0.00,40.00,7,3,12,0.00
2013-3-15,35,32,29,35,31,28,99,96,92,0.00,40.00,11,4,17,0.00
2013-3-16,31,24,19,29,19,12,99,82,63,0.00,40.00,13,-41,17,0.00
2013-3-17,28,20,8,15,10,3,80,67,54,0.00,40.00,14,7,20,0.00
2013-3-18,32,22,15,32,20,12,99,92,80,0.00,40.00,14,7,25,0.00
2013-3-19,25,17,10,12,8,3,86,68,47,0.00,40.00,17,12,32,0.00
2013-3-20,18,12,6,4,1,-4,72,60,54,0.00,40.00,16,11,24,0.00
2013-3-21,29,16,3,10,6,-1,90,66,44,0.00,40.00,8,3,13,0.00
2013-3-22,41,23,4,16,11,2,92,63,36,0.00,40.00,4,1,7,0.00
2013-3-23,44,30,16,22,18,14,94,64,38,0.00,40.00,4,1,8,0.00
2013-3-24,33,30,28,28,25,22,90,80,72,0.00,40.00,9,4,14,0.00
2013-3-25,36,30,22,26,23,20,94,75,63,0.00,40.00,12,7,19,0.00
2013-3-26,38,32,25,27,22,20,86,68,50,0.00,40.00,9,5,14,0.00
2013-3-27,46,36,28,28,24,20,82,64,40,0.00,40.00,6,3,11,0.00
2013-3-28,50,35,19,25,22,18,98,63,34,0.00,40.00,5,1,10,0.00
2013-3-29,53,37,21,29,24,20,99,65,33,0.00,40.00,4,1,11,0.00
2013-3-30,51,42,32,44,34,-100,99,80,63,0.00,40.00,11,5,20,0.00
2013-3-31,39,36,30,39,30,15,99,82,43,0.00,40.00,16,8,29,0.00
2013-4-1,32,28,22,16,14,12,74,57,46,0.00,40.00,13,-33,22,0.00
2013-4-2,36,29,21,19,15,13,82,58,40,0.00,40.00,12,7,21,0.00
2013-4-3,45,34,19,21,16,14,88,52,30,0.00,40.00,9,3,15,0.00
2013-4-4,51,43,36,39,28,20,67,56,47,0.00,40.00,12,7,22,0.00
2013-4-5,47,38,27,35,26,23,99,65,39,0.00,40.00,12,4,17,0.00
2013-4-6,56,42,32,50,34,20,99,74,48,0.00,40.00,12,9,24,0.00
2013-4-7,49,41,35,39,35,33,96,80,59,0.00,40.00,13,7,26,0.00
2013-4-8,47,40,37,43,38,35,99,90,80,0.00,40.00,8,4,14,0.00
2013-4-9,40,37,35,40,37,35,99,99,99,0.00,40.00,11,6,21,0.00
2013-4-10,35,33,31,35,32,28,99,97,75,0.00,40.00,12,5,22,0.00
2013-4-11,35,33,31,34,31,27,99,93,73,0.00,40.00,16,11,27,0.00
2013-4-12,35,32,30,33,31,29,99,95,86,0.00,40.00,8,4,14,0.00
2013-4-13,36,33,29,32,28,26,98,83,67,0.00,40.00,12,6,21,0.00
2013-4-14,39,33,29,38,31,27,99,96,84,0.00,40.00,15,7,23,0.00
2013-4-15,51,42,33,42,33,28,99,74,45,0.00,40.00,15,6,32,0.00
2013-4-16,48,39,33,32,30,28,90,72,48,0.00,40.00,9,4,14,0.00
2013-4-17,39,36,29,38,34,28,99,94,76,0.00,40.00,12,6,24,0.00
2013-4-18,41,38,36,40,38,35,99,99,99,0.00,40.00,11,6,19,0.00
2013-4-19,36,33,29,35,27,22,99,82,65,0.00,40.00,21,14,35,0.00
2013-4-20,43,33,23,26,18,11,93,57,27,0.00,40.00,9,4,17,0.00
2013-4-21,51,38,29,41,32,21,99,78,56,0.00,40.00,14,6,24,0.00
2013-4-22,49,47,46,48,46,41,99,93,72,0.00,40.00,9,4,17,0.00
2013-4-23,49,38,31,49,33,26,99,83,61,0.00,40.00,15,8,21,0.00
2013-4-24,53,40,28,39,26,22,98,62,38,0.00,40.00,11,5,24,0.00
2013-4-25,49,41,32,39,33,26,99,74,43,0.00,40.00,10,5,23,0.00
2013-4-26,72,55,32,47,37,26,95,54,37,0.00,40.00,16,7,26,0.00
2013-4-27,73,60,48,50,48,45,98,67,43,0.00,40.00,10,5,17,0.00
2013-4-28,74,59,40,48,44,40,99,63,34,0.00,40.00,10,4,16,0.00
2013-4-29,72,65,56,58,54,46,97,67,55,0.00,40.00,10,5,17,0.00
2013-4-30,85,71,54,60,57,53,99,66,40,0.00,40.00,18,10,34,0.00
2013-5-6,76,70,55,47,42,38,73,37,28,0.00,40.00,4,3,10,0.00
2013-5-7,81,64,46,50,44,38,99,56,25,0.00,40.00,6,1,10,0.00
2013-5-8,83,65,47,52,47,44,97,61,29,0.00,40.00,6,1,19,0.00
2013-5-9,66,58,48,59,56,48,99,93,62,0.00,40.00,10,4,19,0.00
2013-5-10,63,49,40,48,41,-100,99,80,49,0.00,40.00,6,4,13,0.00
2013-5-11,51,47,42,49,33,-100,99,64,39,0.00,40.00,18,10,32,0.00
2013-5-12,53,44,35,28,25,21,74,49,29,0.00,40.00,15,9,26,0.00
2013-5-13,66,50,28,37,31,27,98,55,26,0.00,40.00,9,3,19,0.00
2013-5-14,90,72,58,58,50,37,74,49,29,0.00,40.00,11,6,22,0.00
2013-5-15,77,68,59,56,48,44,71,50,34,0.00,40.00,13,6,21,0.00
2013-5-16,84,62,53,54,22,-100,89,56,34,0.00,40.00,10,4,17,0.00
2013-5-17,65,54,48,57,45,-100,99,84,50,0.00,40.00,11,7,17,0.00
2013-5-18,78,64,51,66,58,51,99,83,61,0.00,40.00,9,5,15,0.00
2013-5-19,85,72,62,66,64,58,99,77,51,0.00,40.00,17,7,38,0.00
2013-5-20,80,72,62,64,60,57,99,70,49,0.00,40.00,17,7,38,0.00
2013-5-21,73,64,56,64,59,56,99,85,61,0.00,40.00,7,4,18,0.00
2013-5-22,59,56,51,59,56,51,99,99,99,0.00,40.00,6,2,12,0.00
2013-5-23,62,53,45,51,42,33,99,72,36,0.00,40.00,11,5,19,0.00
2013-5-24,65,53,36,49,39,34,99,64,36,0.00,40.00,6,2,12,0.00
2013-5-25,60,54,48,50,44,38,97,72,45,0.00,40.00,9,-38,15,0.00
2013-5-26,63,55,48,54,45,38,96,71,48,0.00,40.00,11,7,20,0.00
2013-5-27,56,54,51,55,50,44,99,88,68,0.00,40.00,13,8,23,0.00
2013-5-28,61,55,51,60,55,51,99,98,96,0.00,40.00,7,4,14,0.00
2013-5-29,80,64,58,66,62,57,99,94,58,0.00,40.00,9,2,16,0.00
2013-5-30,80,70,63,71,66,62,99,88,60,0.00,40.00,14,8,29,0.00
2013-5-31,79,70,63,65,62,58,98,78,49,0.00,40.00,14,8,27,0.00
2013-6-1,74,65,55,64,56,-100,97,79,52,0.00,40.00,19,6,36,0.00
2013-6-2,62,52,45,54,43,40,99,73,48,0.00,40.00,12,7,26,0.00
2013-6-3,72,61,43,49,46,43,99,62,41,0.00,40.00,6,3,11,0.00
2013-6-4,56,54,52,56,54,52,99,99,98,0.00,40.00,11,4,17,0.00
2013-6-5,57,54,51,57,53,51,99,99,99,0.00,40.00,12,6,18,0.00
2013-6-6,56,54,51,55,53,51,99,99,96,0.00,40.00,7,4,10,0.00
2013-6-7,71,58,49,56,52,49,99,81,50,0.00,40.00,5,2,7,0.00
2013-6-8,68,59,53,60,57,53,99,92,75,0.00,40.00,8,3,14,0.00
2013-6-9,72,62,55,66,59,53,99,91,71,0.00,40.00,13,6,20,0.00
2013-6-10,69,62,58,67,62,58,99,98,93,0.00,40.00,2,1,7,0.00
2013-6-11,79,73,67,70,67,65,99,83,64,0.00,40.00,4,2,11,0.00
2013-6-12,76,68,63,71,67,62,99,95,79,0.00,40.00,7,3,13,0.00
2013-6-13,76,68,59,61,57,53,99,73,47,0.00,40.00,8,3,16,0.00
2013-6-14,78,73,59,62,57,54,95,60,48,0.00,40.00,7,4,15,0.00
2013-6-15,81,70,61,72,65,61,99,87,65,0.00,40.00,11,4,18,0.00
2013-6-16,82,72,58,66,57,50,99,66,35,0.00,40.00,11,4,19,0.00
2013-6-17,81,70,61,63,59,55,94,68,41,0.00,40.00,11,4,24,0.00
2013-6-18,74,65,56,63,52,45,98,67,45,0.00,40.00,7,5,13,0.00
2013-6-19,80,67,48,61,54,48,99,68,45,0.00,40.00,6,2,11,0.00
2013-6-20,85,70,56,63,60,56,99,73,45,0.00,40.00,8,4,17,0.00
2013-6-22,83,74,64,72,68,63,99,85,61,0.00,40.00,8,6,15,0.00
2013-6-23,82,74,65,73,68,65,99,84,64,0.00,40.00,14,6,25,0.00
2013-6-24,80,72,66,72,68,65,99,89,74,0.00,40.00,9,3,19,0.00
2013-6-25,81,72,65,76,70,65,99,92,74,0.00,40.00,6,3,12,0.00
2013-6-26,85,75,71,76,72,70,99,93,62,0.00,40.00,6,3,13,0.00
2013-6-27,86,76,69,73,66,57,99,74,45,0.00,40.00,14,5,29,0.00
2013-6-28,73,69,65,68,63,57,99,82,60,0.00,40.00,11,7,21,0.00
2013-6-29,69,65,61,65,62,56,99,91,76,0.00,40.00,9,3,16,0.00
2013-6-30,78,64,55,59,53,49,96,71,37,0.00,40.00,9,2,15,0.00
2013-7-1,81,71,51,63,55,51,99,63,39,0.00,40.00,7,3,16,0.00
2013-7-2,76,65,56,63,57,53,99,79,48,0.00,40.00,7,3,12,0.00
2013-7-3,77,64,48,62,55,48,99,77,42,0.00,40.00,7,3,12,0.00
2013-7-4,84,70,56,64,59,56,99,72,42,0.00,40.00,7,3,14,0.00
2013-7-5,86,74,58,64,61,58,99,69,41,0.00,40.00,12,5,22,0.00
2013-7-6,88,76,69,68,65,63,87,70,50,0.00,40.00,8,5,17,0.00
2013-7-7,87,79,72,74,70,67,91,77,61,0.00,40.00,9,4,18,0.00
2013-7-8,90,81,76,78,74,72,91,81,63,0.00,40.00,9,4,16,0.00
2013-7-9,86,77,67,78,73,67,99,89,67,0.00,40.00,12,4,22,0.00
2013-7-10,77,70,62,72,56,-100,97,66,48,0.00,40.00,12,7,21,0.00
2013-7-11,84,69,56,64,59,56,99,76,41,0.00,40.00,6,1,8,0.00
2013-7-12,84,73,59,65,60,57,99,68,41,0.00,40.00,8,-29,15,0.00
2013-7-13,83,71,59,67,62,59,99,75,46,0.00,40.00,9,-7,18,0.00
2013-7-14,89,72,57,70,64,57,99,79,45,0.00,40.00,8,2,14,0.00
2013-7-15,90,76,63,75,69,63,99,82,57,0.00,40.00,5,2,12,0.00
2013-7-16,92,78,69,76,73,69,99,87,53,0.00,40.00,4,1,11,0.00
2013-7-17,92,82,73,76,73,69,99,79,48,0.00,40.00,6,2,12,0.00
2013-7-18,93,83,73,74,72,70,99,73,48,0.00,40.00,12,5,25,0.00
2013-7-19,90,80,71,74,68,61,97,67,37,0.00,40.00,12,-6,24,0.00
2013-7-20,83,71,61,66,61,-100,99,74,49,0.00,40.00,7,2,10,0.00
2013-7-21,70,66,61,67,64,59,99,93,75,0.00,40.00,7,5,15,0.00
2013-7-22,86,69,60,74,65,59,99,89,61,0.00,40.00,9,4,18,0.00
2013-7-23,73,66,57,71,58,53,97,74,54,0.00,40.00,9,5,19,0.00
2013-7-24,75,64,48,60,53,48,99,72,42,0.00,40.00,6,1,9,0.00
2013-7-25,80,66,55,68,62,55,99,87,57,0.00,40.00,9,4,18,0.00
2013-7-26,75,67,57,68,61,52,99,83,48,0.00,40.00,11,6,26,0.00
2013-7-27,60,54,47,53,50,46,99,88,67,0.00,40.00,11,7,19,0.00
2013-7-28,65,57,49,56,52,49,99,85,64,0.00,40.00,13,7,18,0.00
2013-7-29,77,65,53,61,55,51,99,73,46,0.00,40.00,6,2,9,0.00
2013-7-30,78,67,55,65,60,54,99,80,55,0.00,40.00,8,2,11,0.00
2013-7-31,79,69,64,67,65,61,99,88,57,0.00,40.00,7,3,13,0.00
2013-8-1,78,66,59,63,60,54,99,83,47,0.00,40.00,11,3,16,0.00
2013-8-2,78,68,59,65,58,51,99,74,41,0.00,40.00,9,4,15,0.00
2013-8-3,75,65,52,58,52,48,99,67,40,0.00,40.00,11,4,17,0.00
2013-8-4,74,63,49,59,54,49,99,76,45,0.00,40.00,4,1,7,0.00
2013-8-5,71,63,53,66,60,53,99,93,79,0.00,40.00,9,3,17,0.00
2013-8-6,84,79,65,71,66,63,99,67,49,0.00,40.00,9,4,15,0.00
2013-8-7,74,64,61,64,62,60,99,95,70,0.00,40.00,11,5,23,0.00
2013-8-8,78,70,52,61,55,51,99,61,42,0.00,40.00,6,2,10,0.00
2013-8-9,78,69,60,63,58,54,97,71,45,0.00,40.00,10,4,16,0.00
2013-8-10,73,65,55,58,55,51,99,74,48,0.00,40.00,6,2,10,0.00
2013-8-11,69,63,55,67,62,55,99,97,85,0.00,40.00,4,1,6,0.00
2013-8-12,79,67,57,67,60,56,99,81,46,0.00,40.00,9,3,17,0.00
2013-8-13,71,60,49,58,48,-100,99,73,46,0.00,40.00,7,2,13,0.00
2013-8-14,74,60,48,57,52,48,99,77,45,0.00,40.00,5,2,10,0.00
2013-8-15,80,61,55,59,46,-100,99,71,39,0.00,40.00,6,2,11,0.00
2013-8-16,83,67,51,60,55,51,99,72,38,0.00,40.00,4,1,8,0.00
2013-8-17,83,63,51,62,53,-100,99,78,38,0.00,40.00,4,0,9,0.00
2013-8-18,83,66,52,61,57,52,99,78,41,0.00,40.00,7,2,15,0.00
2013-8-19,84,66,55,66,54,-100,99,77,50,0.00,40.00,9,3,16,0.00
2013-8-20,87,77,65,69,67,64,96,73,54,0.00,40.00,12,5,21,0.00
2013-8-21,89,78,71,76,71,67,99,79,61,0.00,40.00,11,5,23,0.00
2013-8-22,83,72,63,70,63,57,99,76,41,0.00,40.00,7,2,14,0.00
2013-8-23,85,69,56,63,59,55,99,76,43,0.00,40.00,7,2,14,0.00
2013-8-24,85,70,56,70,60,-100,99,75,42,0.00,40.00,10,4,17,0.00
2013-8-25,91,81,74,74,72,70,91,76,58,0.00,40.00,10,8,22,0.00
2013-8-26,91,81,76,79,73,67,92,78,66,0.00,40.00,9,5,19,0.00
2013-8-27,87,81,78,79,75,73,92,82,65,0.00,40.00,7,4,13,0.00
2013-8-28,85,80,75,74,72,70,96,76,63,0.00,40.00,6,3,9,0.00
2013-8-29,89,76,64,75,70,63,99,85,60,0.00,40.00,7,3,14,0.00
2013-8-30,88,80,72,76,72,66,98,80,53,0.00,40.00,9,-37,20,0.00
2013-8-31,84,71,61,68,62,-100,99,79,48,0.00,40.00,8,3,12,0.00
2013-9-1,81,73,66,72,65,57,99,77,49,0.00,40.00,14,5,21,0.00
2013-9-2,69,62,52,62,55,51,99,81,53,0.00,40.00,9,4,16,0.00
2013-9-3,74,60,42,56,50,42,99,75,43,0.00,40.00,7,2,13,0.00
2013-9-4,84,73,53,68,62,53,99,70,49,0.00,40.00,7,3,11,0.00
2013-9-5,80,68,61,65,60,56,99,78,46,0.00,40.00,9,4,16,0.00
2013-9-6,89,72,59,67,60,50,99,69,44,0.00,40.00,11,4,20,0.00
2013-9-7,85,74,70,72,64,-100,93,73,60,0.00,40.00,7,3,14,0.00
2013-9-8,73,68,62,70,63,58,99,85,67,0.00,40.00,11,8,21,0.00
2013-9-9,90,77,63,75,69,63,99,78,57,0.00,40.00,8,5,17,0.00
2013-9-10,88,80,72,71,66,62,79,63,52,0.00,40.00,7,4,19,0.00
2013-9-11,85,74,64,68,64,57,95,73,46,0.00,40.00,7,2,19,0.00
2013-9-12,71,62,54,57,53,46,99,74,46,0.00,40.00,13,6,21,0.00
2013-9-13,66,53,41,47,42,35,99,70,34,0.00,40.00,6,2,14,0.00
2013-9-14,73,60,40,55,42,-100,99,59,39,0.00,40.00,7,3,16,0.00
2013-9-15,65,58,55,57,55,53,99,90,65,0.00,40.00,6,3,11,0.00
2013-9-16,63,54,40,50,43,39,99,72,42,0.00,40.00,7,3,14,0.00
2013-9-17,66,53,38,59,49,38,99,88,55,0.00,40.00,8,3,12,0.00
2013-9-18,63,61,58,61,60,58,99,96,93,0.00,40.00,5,4,13,0.00
2013-9-19,82,76,68,74,71,67,99,86,71,0.00,40.00,11,5,23,0.00
2013-9-20,68,63,55,68,60,52,99,90,68,0.00,40.00,9,6,17,0.00
2013-9-21,56,56,55,52,52,52,90,88,88,0.00,40.00,6,6,11,0.00
2013-10-30,54,53,53,54,53,52,99,98,94,0.00,40.00,9,5,14,0.00
2013-10-31,54,49,41,54,49,40,99,99,96,0.00,40.00,12,4,21,0.00
2013-11-1,46,42,40,42,40,36,99,91,79,0.00,40.00,12,6,21,0.00
2013-11-2,45,39,31,37,33,-100,98,82,68,0.00,40.00,9,5,16,0.00
2013-11-3,51,38,23,37,30,23,99,76,45,0.00,40.00,12,5,22,0.00
2013-11-4,50,46,43,47,40,34,99,79,66,0.00,40.00,11,6,20,0.00
2013-11-5,47,41,31,45,41,31,99,98,87,0.00,40.00,7,2,13,0.00
2013-11-6,42,38,30,42,31,20,99,79,42,0.00,40.00,15,8,25,0.00
2013-11-7,37,31,26,31,28,25,99,90,77,0.00,40.00,7,3,13,0.00
2013-11-8,44,35,24,34,28,23,99,80,54,0.00,40.00,12,5,22,0.00
2013-11-9,47,43,39,42,34,-100,87,73,60,0.00,40.00,19,10,31,0.00
2013-11-10,47,41,36,31,29,28,74,64,49,0.00,40.00,12,6,23,0.00
2013-11-11,42,31,21,35,22,9,99,71,52,0.00,40.00,13,8,23,0.00
2013-11-12,28,22,18,14,12,8,78,64,51,0.00,40.00,9,5,15,0.00
2013-11-13,45,32,18,26,18,13,81,60,44,0.00,40.00,14,6,25,0.00
2013-11-14,50,41,34,32,26,19,69,54,45,0.00,40.00,9,5,17,0.00
2013-11-15,55,42,29,37,33,28,98,73,48,0.00,40.00,6,-21,11,0.00
2013-11-16,59,47,39,56,43,-100,99,91,73,0.00,40.00,10,6,19,0.00
2013-11-17,55,46,37,52,44,30,99,93,75,0.00,40.00,20,9,34,0.00
2013-11-18,37,31,24,30,23,20,85,74,67,0.00,40.00,23,12,34,0.00
2013-11-19,41,30,17,27,22,16,99,74,47,0.00,40.00,11,5,18,0.00
2013-11-20,39,37,34,36,30,26,99,79,60,0.00,40.00,10,6,19,0.00
2013-11-21,39,36,30,38,36,30,99,98,94,0.00,40.00,11,4,16,0.00
2013-11-22,33,28,24,30,18,11,98,71,45,0.00,40.00,14,7,24,0.00
2013-11-23,24,14,9,16,4,-100,79,65,55,0.00,40.00,14,8,24,0.00
2013-11-24,25,17,4,8,4,2,92,61,41,0.00,40.00,16,6,29,0.00
2013-11-25,36,30,24,28,20,7,89,67,44,0.00,40.00,13,8,25,0.00
2013-11-26,35,24,13,25,13,3,79,63,51,0.00,40.00,15,9,29,0.00
2013-11-27,26,18,11,13,9,3,86,69,52,0.00,40.00,9,5,16,0.00
2013-11-28,29,24,15,16,14,11,83,64,57,0.00,40.00,10,5,19,0.00
2013-11-29,32,21,6,20,15,6,98,79,53,0.00,40.00,7,3,14,0.00
2013-11-30,47,35,29,29,24,-100,79,67,50,0.00,40.00,11,5,19,0.00
2013-12-1,40,31,23,29,26,22,99,83,59,0.00,40.00,5,1,9,0.00
2013-12-2,39,29,18,34,27,17,99,93,73,0.00,40.00,10,5,19,0.00
2013-12-3,34,33,32,34,33,32,99,99,99,0.00,40.00,10,7,17,0.00
2013-12-4,32,32,32,32,32,32,99,99,99,0.00,40.00,7,6,11,0.00
2013-12-6,8,6,3,0,-1,-2,82,76,67,0.00,40.00,9,5,14,0.00
2013-12-7,11,3,-3,0,-5,-100,89,74,52,0.00,40.00,9,3,14,0.00
2013-12-8,12,8,3,10,6,0,95,88,74,0.00,40.00,9,4,14,0.00
2013-12-9,13,6,-2,10,2,-7,96,82,63,0.00,40.00,14,5,22,0.00
2013-12-10,14,8,-2,9,1,-6,89,75,62,0.00,40.00,14,7,28,0.00
2013-12-11,12,3,-3,10,-4,-11,93,75,56,0.00,40.00,12,6,22,0.00
2013-12-12,21,10,-3,12,3,-8,81,72,60,0.00,40.00,7,4,14,0.00
2013-12-13,21,17,13,15,11,5,89,77,66,0.00,40.00,9,-10,16,0.00
2013-12-14,22,16,13,18,12,-100,92,86,73,0.00,40.00,12,5,22,0.00
2013-12-15,13,5,-2,10,-2,-10,88,72,56,0.00,40.00,15,-5,22,0.00
2013-12-16,13,2,-6,10,-3,-11,91,79,66,0.00,40.00,4,1,7,0.00
2013-12-17,31,26,15,27,19,7,92,75,64,0.00,40.00,16,10,25,0.00
2013-12-18,37,22,2,29,14,-1,91,73,51,0.00,40.00,11,4,22,0.00
2013-12-19,32,24,22,29,21,18,97,86,82,0.00,40.00,10,6,18,0.00
2013-12-20,22,20,18,21,20,18,99,99,97,0.00,40.00,7,3,12,0.00
2013-12-21,26,24,21,26,22,-100,99,97,95,0.00,40.00,4,2,7,0.00
2013-12-22,26,23,22,24,22,21,99,94,84,0.00,40.00,7,-38,14,0.00
2013-12-23,22,8,-4,22,5,-6,99,89,78,0.00,40.00,9,6,14,0.00
2013-12-24,15,6,-14,9,2,-16,94,84,75,0.00,40.00,8,4,14,0.00
2013-12-25,23,16,9,21,14,8,96,89,76,0.00,40.00,12,4,18,0.00
2013-12-26,24,19,12,20,16,10,98,87,74,0.00,40.00,9,2,14,0.00
2013-12-27,38,24,5,31,20,4,99,86,66,0.00,40.00,12,3,21,0.00
2013-12-28,45,37,21,31,28,21,99,73,54,0.00,40.00,9,4,17,0.00
2013-12-29,40,16,-3,33,11,-11,99,80,67,0.00,40.00,16,11,29,0.00
2013-12-30,4,0,-16,-3,-7,-19,89,75,50,0.00,40.00,4,2,9,0.00
2013-12-31,5,1,-7,-1,-4,-12,92,81,66,0.00,40.00,7,3,12,0.00
2014-1-1,7,1,-8,-3,-7,-12,83,71,58,0.00,40.00,6,2,11,0.00
2014-1-2,10,4,-7,-2,-4,-12,81,69,54,0.00,40.00,8,3,15,0.00